Terminal Aerodrome Forecast
Issued by NWS Quad Cities IA IL

Home | Current Version | Previous Version | Text Only | Print | Product List | Glossary On
Versions: 1 2 3 4 5 6 7 8 9 10 11 12 13 14 15 16 17 18 19 20 21 22 23 24 25 26 27 28 29 30 31 32 33 34
000
FTUS43 KDVN 060604 AAA
TAFDBQ
TAF AMD
KDBQ 060604Z 0606/0706 10006KT 1SM BR OVC002
      TEMPO 0607/0611 1/2SM FG OVC001
     FM061500 14008KT 4SM BR SCT006 BKN010
     FM061700 16014KT P6SM BKN150
     FM070300 16008KT 6SM BR OVC100=

USA.gov is the U.S. government's official web portal to all federal, state and local government web resources and services.